sensor_id;sensor_type;location;lat;lon;timestamp;temperature;humidity
51739;DHT22;37815;52.692;6.226;2022-09-03T00:03:41;20.90;68.50
51739;DHT22;37815;52.692;6.226;2022-09-03T00:09:12;20.90;68.70
51739;DHT22;37815;52.692;6.226;2022-09-03T00:14:38;20.80;68.50
51739;DHT22;37815;52.692;6.226;2022-09-03T00:20:14;20.80;68.60
51739;DHT22;37815;52.692;6.226;2022-09-03T00:25:39;20.80;68.60
51739;DHT22;37815;52.692;6.226;2022-09-03T00:37:00;20.70;68.40
51739;DHT22;37815;52.692;6.226;2022-09-03T00:53:42;20.60;68.30
51739;DHT22;37815;52.692;6.226;2022-09-03T01:04:58;20.50;68.30
51739;DHT22;37815;52.692;6.226;2022-09-03T01:21:42;20.40;68.20
51739;DHT22;37815;52.692;6.226;2022-09-03T01:43:45;20.30;68.30
51739;DHT22;37815;52.692;6.226;2022-09-03T01:49:29;20.30;68.20
51739;DHT22;37815;52.692;6.226;2022-09-03T01:56:14;20.30;68.20
51739;DHT22;37815;52.692;6.226;2022-09-03T02:01:07;20.30;68.20
51739;DHT22;37815;52.692;6.226;2022-09-03T02:06:29;20.20;68.10
51739;DHT22;37815;52.692;6.226;2022-09-03T02:17:41;20.20;68.10
51739;DHT22;37815;52.692;6.226;2022-09-03T02:23:01;20.20;68.10
51739;DHT22;37815;52.692;6.226;2022-09-03T02:28:21;20.20;68.10
51739;DHT22;37815;52.692;6.226;2022-09-03T02:33:43;20.10;68.10
51739;DHT22;37815;52.692;6.226;2022-09-03T02:39:04;20.10;68.10
51739;DHT22;37815;52.692;6.226;2022-09-03T02:44:30;20.10;68.10
51739;DHT22;37815;52.692;6.226;2022-09-03T02:49:51;20.10;68.00
51739;DHT22;37815;52.692;6.226;2022-09-03T02:55:10;20.00;68.00
51739;DHT22;37815;52.692;6.226;2022-09-03T03:00:30;20.00;68.00
51739;DHT22;37815;52.692;6.226;2022-09-03T03:05:54;20.00;68.00
51739;DHT22;37815;52.692;6.226;2022-09-03T03:11:16;19.90;67.90
51739;DHT22;37815;52.692;6.226;2022-09-03T03:16:36;20.00;68.00
51739;DHT22;37815;52.692;6.226;2022-09-03T03:21:55;19.90;67.90
51739;DHT22;37815;52.692;6.226;2022-09-03T03:27:15;19.90;67.90
51739;DHT22;37815;52.692;6.226;2022-09-03T03:32:35;19.90;68.00
51739;DHT22;37815;52.692;6.226;2022-09-03T03:37:57;19.80;67.90
51739;DHT22;37815;52.692;6.226;2022-09-03T03:43:17;19.80;68.00
51739;DHT22;37815;52.692;6.226;2022-09-03T03:48:37;19.80;68.00
51739;DHT22;37815;52.692;6.226;2022-09-03T03:53:57;19.80;68.00
51739;DHT22;37815;52.692;6.226;2022-09-03T03:59:17;19.80;68.00
51739;DHT22;37815;52.692;6.226;2022-09-03T04:04:36;19.80;68.00
51739;DHT22;37815;52.692;6.226;2022-09-03T04:09:55;19.70;68.00
51739;DHT22;37815;52.692;6.226;2022-09-03T04:15:14;19.70;68.00
51739;DHT22;37815;52.692;6.226;2022-09-03T04:20:37;19.70;68.00
51739;DHT22;37815;52.692;6.226;2022-09-03T04:25:57;19.70;68.00
51739;DHT22;37815;52.692;6.226;2022-09-03T04:31:18;19.70;68.00
51739;DHT22;37815;52.692;6.226;2022-09-03T04:36:38;19.60;68.00
51739;DHT22;37815;52.692;6.226;2022-09-03T04:41:57;19.60;68.00
51739;DHT22;37815;52.692;6.226;2022-09-03T04:47:17;19.60;68.00
51739;DHT22;37815;52.692;6.226;2022-09-03T04:52:36;19.60;68.00
51739;DHT22;37815;52.692;6.226;2022-09-03T04:57:56;19.50;67.90
51739;DHT22;37815;52.692;6.226;2022-09-03T05:03:16;19.50;67.90
51739;DHT22;37815;52.692;6.226;2022-09-03T05:08:35;19.50;67.90
51739;DHT22;37815;52.692;6.226;2022-09-03T05:13:56;19.50;67.90
51739;DHT22;37815;52.692;6.226;2022-09-03T05:19:16;19.40;67.80
51739;DHT22;37815;52.692;6.226;2022-09-03T05:24:35;19.40;67.80
51739;DHT22;37815;52.692;6.226;2022-09-03T05:29:54;19.40;67.80
51739;DHT22;37815;52.692;6.226;2022-09-03T05:35:14;19.40;67.80
51739;DHT22;37815;52.692;6.226;2022-09-03T05:40:33;19.30;67.80
51739;DHT22;37815;52.692;6.226;2022-09-03T05:45:57;19.30;67.90
51739;DHT22;37815;52.692;6.226;2022-09-03T05:51:18;19.30;67.90
51739;DHT22;37815;52.692;6.226;2022-09-03T05:56:38;19.30;67.90
51739;DHT22;37815;52.692;6.226;2022-09-03T06:01:58;19.30;67.90
51739;DHT22;37815;52.692;6.226;2022-09-03T06:07:17;19.30;67.90
51739;DHT22;37815;52.692;6.226;2022-09-03T06:12:37;19.20;67.80
51739;DHT22;37815;52.692;6.226;2022-09-03T06:17:57;19.20;67.80
51739;DHT22;37815;52.692;6.226;2022-09-03T06:23:16;19.20;67.90
51739;DHT22;37815;52.692;6.226;2022-09-03T06:28:38;19.20;67.80
51739;DHT22;37815;52.692;6.226;2022-09-03T06:33:59;19.20;67.90
51739;DHT22;37815;52.692;6.226;2022-09-03T06:39:18;19.20;67.90
51739;DHT22;37815;52.692;6.226;2022-09-03T06:44:38;19.20;67.90
51739;DHT22;37815;52.692;6.226;2022-09-03T06:49:57;19.20;68.00
51739;DHT22;37815;52.692;6.226;2022-09-03T06:55:18;19.20;68.10
51739;DHT22;37815;52.692;6.226;2022-09-03T07:00:37;19.30;68.20
51739;DHT22;37815;52.692;6.226;2022-09-03T07:06:04;19.30;68.30
51739;DHT22;37815;52.692;6.226;2022-09-03T07:11:25;19.30;68.50
51739;DHT22;37815;52.692;6.226;2022-09-03T07:16:47;19.30;68.50
51739;DHT22;37815;52.692;6.226;2022-09-03T07:22:07;19.40;68.50
51739;DHT22;37815;52.692;6.226;2022-09-03T07:27:28;19.50;68.50
51739;DHT22;37815;52.692;6.226;2022-09-03T07:32:48;19.50;68.40
51739;DHT22;37815;52.692;6.226;2022-09-03T07:38:10;19.50;68.40
51739;DHT22;37815;52.692;6.226;2022-09-03T07:43:35;19.60;68.40
51739;DHT22;37815;52.692;6.226;2022-09-03T07:48:56;19.60;68.40
51739;DHT22;37815;52.692;6.226;2022-09-03T07:54:16;19.70;68.40
51739;DHT22;37815;52.692;6.226;2022-09-03T07:59:35;19.70;68.40
51739;DHT22;37815;52.692;6.226;2022-09-03T08:05:18;19.70;68.40
51739;DHT22;37815;52.692;6.226;2022-09-03T08:10:40;19.70;68.50
51739;DHT22;37815;52.692;6.226;2022-09-03T08:16:00;19.80;68.70
51739;DHT22;37815;52.692;6.226;2022-09-03T08:21:21;19.80;68.80
51739;DHT22;37815;52.692;6.226;2022-09-03T08:26:41;19.80;69.00
51739;DHT22;37815;52.692;6.226;2022-09-03T08:32:02;19.80;69.00
51739;DHT22;37815;52.692;6.226;2022-09-03T08:37:22;19.80;69.00
51739;DHT22;37815;52.692;6.226;2022-09-03T08:48:27;19.90;69.70
51739;DHT22;37815;52.692;6.226;2022-09-03T08:53:50;19.90;69.10
51739;DHT22;37815;52.692;6.226;2022-09-03T08:59:13;19.90;69.30
51739;DHT22;37815;52.692;6.226;2022-09-03T09:10:15;20.00;69.30
51739;DHT22;37815;52.692;6.226;2022-09-03T09:21:40;20.00;69.00
51739;DHT22;37815;52.692;6.226;2022-09-03T09:27:05;20.00;68.90
51739;DHT22;37815;52.692;6.226;2022-09-03T09:32:24;20.10;69.10
51739;DHT22;37815;52.692;6.226;2022-09-03T09:37:52;20.20;68.90
51739;DHT22;37815;52.692;6.226;2022-09-03T09:48:33;20.50;68.80
51739;DHT22;37815;52.692;6.226;2022-09-03T09:54:03;20.60;68.80
51739;DHT22;37815;52.692;6.226;2022-09-03T09:59:22;20.80;68.90
51739;DHT22;37815;52.692;6.226;2022-09-03T10:04:42;20.90;68.20
51739;DHT22;37815;52.692;6.226;2022-09-03T10:10:12;20.90;68.20
51739;DHT22;37815;52.692;6.226;2022-09-03T10:15:46;21.00;68.10
51739;DHT22;37815;52.692;6.226;2022-09-03T10:26:30;21.30;67.90
51739;DHT22;37815;52.692;6.226;2022-09-03T10:31:54;21.40;67.70
51739;DHT22;37815;52.692;6.226;2022-09-03T10:48:22;21.90;67.30
51739;DHT22;37815;52.692;6.226;2022-09-03T10:59:43;22.30;66.00
51739;DHT22;37815;52.692;6.226;2022-09-03T11:05:12;22.30;65.30
51739;DHT22;37815;52.692;6.226;2022-09-03T11:10:44;22.50;65.20
51739;DHT22;37815;52.692;6.226;2022-09-03T11:16:16;22.60;64.50
51739;DHT22;37815;52.692;6.226;2022-09-03T11:21:37;22.70;63.80
51739;DHT22;37815;52.692;6.226;2022-09-03T11:32:54;22.90;63.10
51739;DHT22;37815;52.692;6.226;2022-09-03T11:43:38;23.10;62.50
51739;DHT22;37815;52.692;6.226;2022-09-03T11:49:12;23.30;62.60
51739;DHT22;37815;52.692;6.226;2022-09-03T11:54:45;23.40;61.60
51739;DHT22;37815;52.692;6.226;2022-09-03T12:00:13;23.50;62.20
51739;DHT22;37815;52.692;6.226;2022-09-03T12:22:44;23.90;60.60
51739;DHT22;37815;52.692;6.226;2022-09-03T12:28:11;24.00;61.00
51739;DHT22;37815;52.692;6.226;2022-09-03T12:33:31;24.10;60.00
51739;DHT22;37815;52.692;6.226;2022-09-03T12:38:51;24.20;59.80
51739;DHT22;37815;52.692;6.226;2022-09-03T12:44:11;24.20;59.90
51739;DHT22;37815;52.692;6.226;2022-09-03T12:49:39;24.40;60.10
51739;DHT22;37815;52.692;6.226;2022-09-03T12:55:03;24.50;60.00
51739;DHT22;37815;52.692;6.226;2022-09-03T13:00:25;24.50;59.80
51739;DHT22;37815;52.692;6.226;2022-09-03T13:05:53;24.60;59.60
51739;DHT22;37815;52.692;6.226;2022-09-03T13:11:19;24.70;59.60
51739;DHT22;37815;52.692;6.226;2022-09-03T13:28:06;25.10;59.30
51739;DHT22;37815;52.692;6.226;2022-09-03T13:33:43;25.30;58.90
51739;DHT22;37815;52.692;6.226;2022-09-03T13:44:51;25.60;59.10
51739;DHT22;37815;52.692;6.226;2022-09-03T13:50:20;25.70;58.80
51739;DHT22;37815;52.692;6.226;2022-09-03T13:55:50;25.80;58.20
51739;DHT22;37815;52.692;6.226;2022-09-03T14:01:37;25.90;58.30
51739;DHT22;37815;52.692;6.226;2022-09-03T14:07:02;26.00;57.90
51739;DHT22;37815;52.692;6.226;2022-09-03T14:18:35;26.30;56.60
51739;DHT22;37815;52.692;6.226;2022-09-03T14:30:05;26.50;56.90
51739;DHT22;37815;52.692;6.226;2022-09-03T15:21:42;26.00;57.90
51739;DHT22;37815;52.692;6.226;2022-09-03T15:27:31;26.20;57.40
51739;DHT22;37815;52.692;6.226;2022-09-03T15:39:00;26.00;57.20
51739;DHT22;37815;52.692;6.226;2022-09-03T15:44:23;25.70;57.20
51739;DHT22;37815;52.692;6.226;2022-09-03T16:07:01;24.80;58.80
51739;DHT22;37815;52.692;6.226;2022-09-03T16:13:18;24.60;59.20
51739;DHT22;37815;52.692;6.226;2022-09-03T16:25:11;24.50;60.40
51739;DHT22;37815;52.692;6.226;2022-09-03T16:30:13;24.40;60.30
51739;DHT22;37815;52.692;6.226;2022-09-03T16:42:03;24.30;60.70
51739;DHT22;37815;52.692;6.226;2022-09-03T16:47:46;24.30;60.40
51739;DHT22;37815;52.692;6.226;2022-09-03T17:48:22;23.70;62.80
51739;DHT22;37815;52.692;6.226;2022-09-03T18:06:50;23.30;64.30
51739;DHT22;37815;52.692;6.226;2022-09-03T18:12:50;23.50;64.70
51739;DHT22;37815;52.692;6.226;2022-09-03T18:25:51;23.60;65.00
51739;DHT22;37815;52.692;6.226;2022-09-03T18:31:50;23.10;64.70
51739;DHT22;37815;52.692;6.226;2022-09-03T19:01:38;23.50;65.20
51739;DHT22;37815;52.692;6.226;2022-09-03T19:07:27;23.50;65.40
51739;DHT22;37815;52.692;6.226;2022-09-03T19:24:55;23.40;65.50
51739;DHT22;37815;52.692;6.226;2022-09-03T19:37:03;23.30;65.60
51739;DHT22;37815;52.692;6.226;2022-09-03T19:54:31;23.20;65.60
51739;DHT22;37815;52.692;6.226;2022-09-03T20:00:09;23.20;65.80
51739;DHT22;37815;52.692;6.226;2022-09-03T20:05:47;23.20;65.90
51739;DHT22;37815;52.692;6.226;2022-09-03T20:11:27;23.20;65.90
51739;DHT22;37815;52.692;6.226;2022-09-03T20:22:30;23.10;66.10
51739;DHT22;37815;52.692;6.226;2022-09-03T20:28:26;23.10;66.10
51739;DHT22;37815;52.692;6.226;2022-09-03T20:39:50;23.00;66.20
51739;DHT22;37815;52.692;6.226;2022-09-03T20:45:24;22.90;66.20
51739;DHT22;37815;52.692;6.226;2022-09-03T20:51:02;22.90;66.20
51739;DHT22;37815;52.692;6.226;2022-09-03T21:02:14;22.90;66.40
51739;DHT22;37815;52.692;6.226;2022-09-03T21:08:06;22.80;66.40
51739;DHT22;37815;52.692;6.226;2022-09-03T21:13:41;22.70;66.50
51739;DHT22;37815;52.692;6.226;2022-09-03T21:19:10;22.70;66.40
51739;DHT22;37815;52.692;6.226;2022-09-03T21:24:34;22.70;66.40
51739;DHT22;37815;52.692;6.226;2022-09-03T21:30:06;22.60;66.50
51739;DHT22;37815;52.692;6.226;2022-09-03T21:35:57;22.60;66.50
51739;DHT22;37815;52.692;6.226;2022-09-03T21:41:35;22.60;66.50
51739;DHT22;37815;52.692;6.226;2022-09-03T21:47:01;22.50;66.50
51739;DHT22;37815;52.692;6.226;2022-09-03T21:58:20;22.50;66.80
51739;DHT22;37815;52.692;6.226;2022-09-03T22:03:45;22.40;66.60
51739;DHT22;37815;52.692;6.226;2022-09-03T22:09:16;22.40;66.60
51739;DHT22;37815;52.692;6.226;2022-09-03T22:14:43;22.40;66.70
51739;DHT22;37815;52.692;6.226;2022-09-03T22:20:05;22.30;66.70
51739;DHT22;37815;52.692;6.226;2022-09-03T22:31:26;22.30;66.70
51739;DHT22;37815;52.692;6.226;2022-09-03T22:37:03;22.20;66.70
51739;DHT22;37815;52.692;6.226;2022-09-03T22:55:13;22.10;66.60
51739;DHT22;37815;52.692;6.226;2022-09-03T23:06:10;22.00;66.60
51739;DHT22;37815;52.692;6.226;2022-09-03T23:11:48;22.00;66.60
51739;DHT22;37815;52.692;6.226;2022-09-03T23:17:15;22.00;66.60
51739;DHT22;37815;52.692;6.226;2022-09-03T23:22:43;21.90;66.60
51739;DHT22;37815;52.692;6.226;2022-09-03T23:28:23;21.90;66.60
51739;DHT22;37815;52.692;6.226;2022-09-03T23:33:45;21.90;66.60
51739;DHT22;37815;52.692;6.226;2022-09-03T23:39:28;21.90;66.70
51739;DHT22;37815;52.692;6.226;2022-09-03T23:50:53;21.80;66.50
